sensor_id;sensor_type;location;lat;lon;timestamp;temperature;humidity
63013;DHT22;62113;45.624;11.700;2023-08-07T00:02:22;22.20;61.30
63013;DHT22;62113;45.624;11.700;2023-08-07T00:04:48;22.10;61.30
63013;DHT22;62113;45.624;11.700;2023-08-07T00:07:13;22.10;61.40
63013;DHT22;62113;45.624;11.700;2023-08-07T00:09:39;22.10;61.20
63013;DHT22;62113;45.624;11.700;2023-08-07T00:12:04;22.00;61.20
63013;DHT22;62113;45.624;11.700;2023-08-07T00:14:30;22.00;61.20
63013;DHT22;62113;45.624;11.700;2023-08-07T00:16:55;22.00;61.20
63013;DHT22;62113;45.624;11.700;2023-08-07T00:19:21;22.00;61.50
63013;DHT22;62113;45.624;11.700;2023-08-07T00:21:46;22.00;61.60
63013;DHT22;62113;45.624;11.700;2023-08-07T00:24:12;21.90;61.80
63013;DHT22;62113;45.624;11.700;2023-08-07T00:26:37;22.00;61.30
63013;DHT22;62113;45.624;11.700;2023-08-07T00:29:03;21.90;61.30
63013;DHT22;62113;45.624;11.700;2023-08-07T00:31:28;21.90;61.10
63013;DHT22;62113;45.624;11.700;2023-08-07T00:33:57;21.90;61.30
63013;DHT22;62113;45.624;11.700;2023-08-07T00:36:22;21.90;61.20
63013;DHT22;62113;45.624;11.700;2023-08-07T00:38:48;21.80;61.40
63013;DHT22;62113;45.624;11.700;2023-08-07T00:41:16;21.80;61.30
63013;DHT22;62113;45.624;11.700;2023-08-07T00:43:41;21.80;61.40
63013;DHT22;62113;45.624;11.700;2023-08-07T00:46:07;21.70;61.50
63013;DHT22;62113;45.624;11.700;2023-08-07T00:48:32;21.70;61.50
63013;DHT22;62113;45.624;11.700;2023-08-07T00:50:58;21.70;61.50
63013;DHT22;62113;45.624;11.700;2023-08-07T00:53:24;21.70;61.40
63013;DHT22;62113;45.624;11.700;2023-08-07T00:55:49;21.70;61.50
63013;DHT22;62113;45.624;11.700;2023-08-07T00:58:15;21.70;61.50
63013;DHT22;62113;45.624;11.700;2023-08-07T01:00:41;21.60;61.40
63013;DHT22;62113;45.624;11.700;2023-08-07T01:03:07;21.60;61.40
63013;DHT22;62113;45.624;11.700;2023-08-07T01:05:33;21.50;61.50
63013;DHT22;62113;45.624;11.700;2023-08-07T01:07:59;21.50;61.70
63013;DHT22;62113;45.624;11.700;2023-08-07T01:10:40;21.50;61.50
63013;DHT22;62113;45.624;11.700;2023-08-07T01:13:10;21.40;61.60
63013;DHT22;62113;45.624;11.700;2023-08-07T01:15:38;21.40;61.60
63013;DHT22;62113;45.624;11.700;2023-08-07T01:18:04;21.40;61.60
63013;DHT22;62113;45.624;11.700;2023-08-07T01:20:32;21.40;61.50
63013;DHT22;62113;45.624;11.700;2023-08-07T01:22:58;21.30;61.50
63013;DHT22;62113;45.624;11.700;2023-08-07T01:25:23;21.30;61.50
63013;DHT22;62113;45.624;11.700;2023-08-07T01:30:45;21.20;61.40
63013;DHT22;62113;45.624;11.700;2023-08-07T01:33:16;21.20;61.30
63013;DHT22;62113;45.624;11.700;2023-08-07T01:35:43;21.20;61.20
63013;DHT22;62113;45.624;11.700;2023-08-07T01:38:10;21.20;61.20
63013;DHT22;62113;45.624;11.700;2023-08-07T01:40:36;21.20;61.20
63013;DHT22;62113;45.624;11.700;2023-08-07T01:43:02;21.20;61.20
63013;DHT22;62113;45.624;11.700;2023-08-07T01:45:28;21.10;61.20
63013;DHT22;62113;45.624;11.700;2023-08-07T01:47:54;21.10;61.30
63013;DHT22;62113;45.624;11.700;2023-08-07T01:50:20;21.10;61.40
63013;DHT22;62113;45.624;11.700;2023-08-07T01:52:45;21.00;61.50
63013;DHT22;62113;45.624;11.700;2023-08-07T01:55:13;21.00;61.40
63013;DHT22;62113;45.624;11.700;2023-08-07T01:57:38;21.00;61.40
63013;DHT22;62113;45.624;11.700;2023-08-07T02:00:04;20.90;61.50
63013;DHT22;62113;45.624;11.700;2023-08-07T02:02:29;20.90;61.70
63013;DHT22;62113;45.624;11.700;2023-08-07T02:04:55;20.90;61.50
63013;DHT22;62113;45.624;11.700;2023-08-07T02:07:20;20.90;61.50
63013;DHT22;62113;45.624;11.700;2023-08-07T02:09:46;20.90;61.50
63013;DHT22;62113;45.624;11.700;2023-08-07T02:12:11;20.80;61.50
63013;DHT22;62113;45.624;11.700;2023-08-07T02:14:37;20.80;61.40
63013;DHT22;62113;45.624;11.700;2023-08-07T02:17:02;20.70;61.40
63013;DHT22;62113;45.624;11.700;2023-08-07T02:19:28;20.70;61.50
63013;DHT22;62113;45.624;11.700;2023-08-07T02:21:53;20.50;61.40
63013;DHT22;62113;45.624;11.700;2023-08-07T02:24:19;20.40;61.70
63013;DHT22;62113;45.624;11.700;2023-08-07T02:26:45;20.30;61.70
63013;DHT22;62113;45.624;11.700;2023-08-07T02:29:10;20.20;62.00
63013;DHT22;62113;45.624;11.700;2023-08-07T02:31:36;20.20;62.00
63013;DHT22;62113;45.624;11.700;2023-08-07T02:34:01;20.20;62.20
63013;DHT22;62113;45.624;11.700;2023-08-07T02:36:27;20.20;62.40
63013;DHT22;62113;45.624;11.700;2023-08-07T02:38:53;20.20;62.30
63013;DHT22;62113;45.624;11.700;2023-08-07T02:41:18;20.20;62.30
63013;DHT22;62113;45.624;11.700;2023-08-07T02:43:44;20.20;62.50
63013;DHT22;62113;45.624;11.700;2023-08-07T02:46:09;20.20;62.80
63013;DHT22;62113;45.624;11.700;2023-08-07T02:48:35;20.10;62.50
63013;DHT22;62113;45.624;11.700;2023-08-07T02:51:00;20.20;62.90
63013;DHT22;62113;45.624;11.700;2023-08-07T02:53:26;20.10;62.50
63013;DHT22;62113;45.624;11.700;2023-08-07T02:55:51;20.10;62.40
63013;DHT22;62113;45.624;11.700;2023-08-07T02:58:17;20.10;62.40
63013;DHT22;62113;45.624;11.700;2023-08-07T03:00:42;20.10;62.50
63013;DHT22;62113;45.624;11.700;2023-08-07T03:03:08;20.10;62.40
63013;DHT22;62113;45.624;11.700;2023-08-07T03:05:34;20.00;62.20
63013;DHT22;62113;45.624;11.700;2023-08-07T03:07:59;20.00;62.00
63013;DHT22;62113;45.624;11.700;2023-08-07T03:10:25;19.90;62.00
63013;DHT22;62113;45.624;11.700;2023-08-07T03:12:50;19.80;62.10
63013;DHT22;62113;45.624;11.700;2023-08-07T03:15:16;19.80;62.20
63013;DHT22;62113;45.624;11.700;2023-08-07T03:17:42;19.80;62.50
63013;DHT22;62113;45.624;11.700;2023-08-07T03:20:07;19.80;62.60
63013;DHT22;62113;45.624;11.700;2023-08-07T03:22:33;19.80;62.40
63013;DHT22;62113;45.624;11.700;2023-08-07T03:24:59;19.80;62.20
63013;DHT22;62113;45.624;11.700;2023-08-07T03:27:24;19.70;62.30
63013;DHT22;62113;45.624;11.700;2023-08-07T03:29:50;19.70;62.30
63013;DHT22;62113;45.624;11.700;2023-08-07T03:32:15;19.70;62.30
63013;DHT22;62113;45.624;11.700;2023-08-07T03:34:41;19.70;62.40
63013;DHT22;62113;45.624;11.700;2023-08-07T03:37:06;19.70;62.20
63013;DHT22;62113;45.624;11.700;2023-08-07T03:39:32;19.70;62.20
63013;DHT22;62113;45.624;11.700;2023-08-07T03:41:58;19.70;62.10
63013;DHT22;62113;45.624;11.700;2023-08-07T03:44:23;19.70;62.00
63013;DHT22;62113;45.624;11.700;2023-08-07T03:46:49;19.70;62.00
63013;DHT22;62113;45.624;11.700;2023-08-07T03:49:16;19.70;61.90
63013;DHT22;62113;45.624;11.700;2023-08-07T03:51:42;19.70;61.60
63013;DHT22;62113;45.624;11.700;2023-08-07T03:54:07;19.70;61.60
63013;DHT22;62113;45.624;11.700;2023-08-07T03:56:33;19.60;61.80
63013;DHT22;62113;45.624;11.700;2023-08-07T03:59:04;19.60;61.60
63013;DHT22;62113;45.624;11.700;2023-08-07T04:01:30;19.60;61.60
63013;DHT22;62113;45.624;11.700;2023-08-07T04:03:55;19.50;61.60
63013;DHT22;62113;45.624;11.700;2023-08-07T04:06:21;19.50;62.20
63013;DHT22;62113;45.624;11.700;2023-08-07T04:08:46;19.60;63.60
63013;DHT22;62113;45.624;11.700;2023-08-07T04:11:12;19.70;63.90
63013;DHT22;62113;45.624;11.700;2023-08-07T04:13:37;19.80;63.50
63013;DHT22;62113;45.624;11.700;2023-08-07T04:16:03;20.00;64.40
63013;DHT22;62113;45.624;11.700;2023-08-07T04:18:33;20.20;62.80
63013;DHT22;62113;45.624;11.700;2023-08-07T04:20:58;20.30;62.20
63013;DHT22;62113;45.624;11.700;2023-08-07T04:23:24;20.30;61.40
63013;DHT22;62113;45.624;11.700;2023-08-07T04:25:50;20.30;61.10
63013;DHT22;62113;45.624;11.700;2023-08-07T04:28:15;20.30;60.60
63013;DHT22;62113;45.624;11.700;2023-08-07T04:30:41;20.30;60.70
63013;DHT22;62113;45.624;11.700;2023-08-07T04:33:07;20.30;60.40
63013;DHT22;62113;45.624;11.700;2023-08-07T04:35:33;20.30;60.30
63013;DHT22;62113;45.624;11.700;2023-08-07T04:37:58;20.20;60.10
63013;DHT22;62113;45.624;11.700;2023-08-07T04:40:24;20.20;60.20
63013;DHT22;62113;45.624;11.700;2023-08-07T04:42:49;20.20;60.30
63013;DHT22;62113;45.624;11.700;2023-08-07T04:45:15;20.30;60.50
63013;DHT22;62113;45.624;11.700;2023-08-07T04:47:41;20.60;60.70
63013;DHT22;62113;45.624;11.700;2023-08-07T04:50:06;20.90;60.20
63013;DHT22;62113;45.624;11.700;2023-08-07T04:52:32;21.20;59.40
63013;DHT22;62113;45.624;11.700;2023-08-07T04:54:58;21.40;59.00
63013;DHT22;62113;45.624;11.700;2023-08-07T04:57:23;21.50;58.60
63013;DHT22;62113;45.624;11.700;2023-08-07T04:59:48;21.50;58.40
63013;DHT22;62113;45.624;11.700;2023-08-07T05:02:14;21.50;58.40
63013;DHT22;62113;45.624;11.700;2023-08-07T05:04:39;21.40;58.40
63013;DHT22;62113;45.624;11.700;2023-08-07T05:07:05;21.30;58.60
63013;DHT22;62113;45.624;11.700;2023-08-07T05:09:31;21.20;58.80
63013;DHT22;62113;45.624;11.700;2023-08-07T05:11:56;21.20;59.00
63013;DHT22;62113;45.624;11.700;2023-08-07T05:14:22;21.10;59.20
63013;DHT22;62113;45.624;11.700;2023-08-07T05:16:47;21.10;59.30
63013;DHT22;62113;45.624;11.700;2023-08-07T05:19:13;21.00;59.20
63013;DHT22;62113;45.624;11.700;2023-08-07T05:21:38;21.00;59.50
63013;DHT22;62113;45.624;11.700;2023-08-07T05:24:04;20.90;59.80
63013;DHT22;62113;45.624;11.700;2023-08-07T05:26:30;21.00;59.80
63013;DHT22;62113;45.624;11.700;2023-08-07T05:28:55;20.90;60.10
63013;DHT22;62113;45.624;11.700;2023-08-07T05:31:23;20.90;60.00
63013;DHT22;62113;45.624;11.700;2023-08-07T05:33:49;20.90;60.20
63013;DHT22;62113;45.624;11.700;2023-08-07T05:36:14;20.90;60.20
63013;DHT22;62113;45.624;11.700;2023-08-07T05:38:40;20.90;60.40
63013;DHT22;62113;45.624;11.700;2023-08-07T05:41:05;20.90;60.60
63013;DHT22;62113;45.624;11.700;2023-08-07T05:43:31;21.00;61.30
63013;DHT22;62113;45.624;11.700;2023-08-07T05:45:57;21.30;61.90
63013;DHT22;62113;45.624;11.700;2023-08-07T05:48:22;22.20;61.50
63013;DHT22;62113;45.624;11.700;2023-08-07T05:50:48;23.60;59.50
63013;DHT22;62113;45.624;11.700;2023-08-07T05:53:13;25.30;56.10
63013;DHT22;62113;45.624;11.700;2023-08-07T05:55:39;27.00;51.90
63013;DHT22;62113;45.624;11.700;2023-08-07T05:58:06;28.50;49.10
63013;DHT22;62113;45.624;11.700;2023-08-07T06:00:31;30.10;46.80
63013;DHT22;62113;45.624;11.700;2023-08-07T06:02:57;31.50;44.30
63013;DHT22;62113;45.624;11.700;2023-08-07T06:05:22;32.80;42.00
63013;DHT22;62113;45.624;11.700;2023-08-07T06:07:48;33.90;39.90
63013;DHT22;62113;45.624;11.700;2023-08-07T06:10:13;34.80;38.30
63013;DHT22;62113;45.624;11.700;2023-08-07T06:12:39;35.70;37.00
63013;DHT22;62113;45.624;11.700;2023-08-07T06:15:05;36.40;34.80
63013;DHT22;62113;45.624;11.700;2023-08-07T06:17:30;37.10;34.20
63013;DHT22;62113;45.624;11.700;2023-08-07T06:19:56;37.70;33.10
63013;DHT22;62113;45.624;11.700;2023-08-07T06:22:21;38.20;27.50
63013;DHT22;62113;45.624;11.700;2023-08-07T06:24:47;38.50;30.10
63013;DHT22;62113;45.624;11.700;2023-08-07T06:27:12;38.90;30.20
63013;DHT22;62113;45.624;11.700;2023-08-07T06:29:38;39.40;29.90
63013;DHT22;62113;45.624;11.700;2023-08-07T06:32:03;40.00;29.40
63013;DHT22;62113;45.624;11.700;2023-08-07T06:34:29;40.60;28.60
63013;DHT22;62113;45.624;11.700;2023-08-07T06:36:54;41.10;28.00
63013;DHT22;62113;45.624;11.700;2023-08-07T06:39:20;41.60;27.70
63013;DHT22;62113;45.624;11.700;2023-08-07T06:41:45;42.10;26.90
63013;DHT22;62113;45.624;11.700;2023-08-07T06:44:11;42.60;26.30
63013;DHT22;62113;45.624;11.700;2023-08-07T06:46:36;43.10;25.80
63013;DHT22;62113;45.624;11.700;2023-08-07T06:49:02;43.60;25.30
63013;DHT22;62113;45.624;11.700;2023-08-07T06:51:27;44.20;24.50
63013;DHT22;62113;45.624;11.700;2023-08-07T06:53:53;44.50;23.20
63013;DHT22;62113;45.624;11.700;2023-08-07T06:56:18;44.70;24.20
63013;DHT22;62113;45.624;11.700;2023-08-07T06:58:44;45.10;23.90
63013;DHT22;62113;45.624;11.700;2023-08-07T07:01:09;45.10;21.70
63013;DHT22;62113;45.624;11.700;2023-08-07T07:03:35;44.30;21.00
63013;DHT22;62113;45.624;11.700;2023-08-07T07:06:00;43.80;19.30
63013;DHT22;62113;45.624;11.700;2023-08-07T07:08:26;43.70;21.20
63013;DHT22;62113;45.624;11.700;2023-08-07T07:10:51;43.90;21.40
63013;DHT22;62113;45.624;11.700;2023-08-07T07:13:17;43.90;20.20
63013;DHT22;62113;45.624;11.700;2023-08-07T07:15:42;44.00;22.10
63013;DHT22;62113;45.624;11.700;2023-08-07T07:18:08;43.00;22.20
63013;DHT22;62113;45.624;11.700;2023-08-07T07:20:33;43.00;22.30
63013;DHT22;62113;45.624;11.700;2023-08-07T07:22:59;43.20;22.90
63013;DHT22;62113;45.624;11.700;2023-08-07T07:25:24;43.70;21.60
63013;DHT22;62113;45.624;11.700;2023-08-07T07:27:50;44.20;21.40
63013;DHT22;62113;45.624;11.700;2023-08-07T07:30:15;43.60;21.90
63013;DHT22;62113;45.624;11.700;2023-08-07T07:32:41;43.80;22.10
63013;DHT22;62113;45.624;11.700;2023-08-07T07:35:07;44.20;21.80
63013;DHT22;62113;45.624;11.700;2023-08-07T07:37:32;44.80;22.60
63013;DHT22;62113;45.624;11.700;2023-08-07T07:39:58;45.40;21.90
63013;DHT22;62113;45.624;11.700;2023-08-07T07:42:23;45.50;21.40
63013;DHT22;62113;45.624;11.700;2023-08-07T07:44:49;45.40;20.30
63013;DHT22;62113;45.624;11.700;2023-08-07T07:47:14;45.60;19.30
63013;DHT22;62113;45.624;11.700;2023-08-07T07:49:44;45.90;21.10
63013;DHT22;62113;45.624;11.700;2023-08-07T07:52:10;46.40;19.70
63013;DHT22;62113;45.624;11.700;2023-08-07T07:54:35;46.60;20.10
63013;DHT22;62113;45.624;11.700;2023-08-07T07:57:01;46.90;17.80
63013;DHT22;62113;45.624;11.700;2023-08-07T07:59:26;47.20;19.20
63013;DHT22;62113;45.624;11.700;2023-08-07T08:01:52;47.50;18.30
63013;DHT22;62113;45.624;11.700;2023-08-07T08:04:17;47.60;18.00
63013;DHT22;62113;45.624;11.700;2023-08-07T08:06:44;47.50;16.80
63013;DHT22;62113;45.624;11.700;2023-08-07T08:09:10;47.60;18.10
63013;DHT22;62113;45.624;11.700;2023-08-07T08:11:35;47.90;18.50
63013;DHT22;62113;45.624;11.700;2023-08-07T08:14:01;48.30;18.40
63013;DHT22;62113;45.624;11.700;2023-08-07T08:16:26;48.40;17.00
63013;DHT22;62113;45.624;11.700;2023-08-07T08:18:52;48.70;16.80
63013;DHT22;62113;45.624;11.700;2023-08-07T08:21:17;49.00;17.50
63013;DHT22;62113;45.624;11.700;2023-08-07T08:23:43;49.30;16.80
63013;DHT22;62113;45.624;11.700;2023-08-07T08:26:08;49.40;17.10
63013;DHT22;62113;45.624;11.700;2023-08-07T08:28:34;49.60;16.80
63013;DHT22;62113;45.624;11.700;2023-08-07T08:30:59;49.50;16.70
63013;DHT22;62113;45.624;11.700;2023-08-07T08:33:25;49.30;17.20
63013;DHT22;62113;45.624;11.700;2023-08-07T08:35:50;48.70;17.50
63013;DHT22;62113;45.624;11.700;2023-08-07T08:38:16;47.70;17.90
63013;DHT22;62113;45.624;11.700;2023-08-07T08:40:42;45.90;17.60
63013;DHT22;62113;45.624;11.700;2023-08-07T08:43:09;44.20;18.80
63013;DHT22;62113;45.624;11.700;2023-08-07T08:45:37;42.30;21.20
63013;DHT22;62113;45.624;11.700;2023-08-07T08:48:03;40.50;21.70
63013;DHT22;62113;45.624;11.700;2023-08-07T08:50:29;38.70;22.00
63013;DHT22;62113;45.624;11.700;2023-08-07T08:52:55;37.60;25.20
63013;DHT22;62113;45.624;11.700;2023-08-07T08:55:22;36.60;26.40
63013;DHT22;62113;45.624;11.700;2023-08-07T08:57:48;35.70;26.70
63013;DHT22;62113;45.624;11.700;2023-08-07T09:00:15;34.90;28.70
63013;DHT22;62113;45.624;11.700;2023-08-07T09:02:46;34.30;30.90
63013;DHT22;62113;45.624;11.700;2023-08-07T09:05:13;33.70;30.80
63013;DHT22;62113;45.624;11.700;2023-08-07T09:07:39;33.10;33.00
63013;DHT22;62113;45.624;11.700;2023-08-07T09:10:04;32.70;31.80
63013;DHT22;62113;45.624;11.700;2023-08-07T09:12:31;32.40;34.30
63013;DHT22;62113;45.624;11.700;2023-08-07T09:14:57;32.10;31.40
63013;DHT22;62113;45.624;11.700;2023-08-07T09:17:23;31.90;34.10
63013;DHT22;62113;45.624;11.700;2023-08-07T09:19:50;31.60;31.30
63013;DHT22;62113;45.624;11.700;2023-08-07T09:22:16;31.20;31.10
63013;DHT22;62113;45.624;11.700;2023-08-07T09:24:41;31.00;35.30
63013;DHT22;62113;45.624;11.700;2023-08-07T09:27:07;30.80;32.70
63013;DHT22;62113;45.624;11.700;2023-08-07T09:29:33;30.70;32.40
63013;DHT22;62113;45.624;11.700;2023-08-07T09:32:06;30.60;32.70
63013;DHT22;62113;45.624;11.700;2023-08-07T09:34:31;30.50;33.40
63013;DHT22;62113;45.624;11.700;2023-08-07T09:36:57;30.40;33.20
63013;DHT22;62113;45.624;11.700;2023-08-07T09:39:23;30.30;33.90
63013;DHT22;62113;45.624;11.700;2023-08-07T09:41:50;30.20;36.60
63013;DHT22;62113;45.624;11.700;2023-08-07T09:44:16;30.20;35.60
63013;DHT22;62113;45.624;11.700;2023-08-07T09:46:42;30.10;35.50
63013;DHT22;62113;45.624;11.700;2023-08-07T09:49:08;30.20;35.80
63013;DHT22;62113;45.624;11.700;2023-08-07T09:51:46;30.10;37.00
63013;DHT22;62113;45.624;11.700;2023-08-07T09:54:12;29.90;36.30
63013;DHT22;62113;45.624;11.700;2023-08-07T09:56:38;29.70;35.00
63013;DHT22;62113;45.624;11.700;2023-08-07T09:59:04;29.50;36.80
63013;DHT22;62113;45.624;11.700;2023-08-07T10:01:30;29.30;34.60
63013;DHT22;62113;45.624;11.700;2023-08-07T10:03:56;29.20;35.30
63013;DHT22;62113;45.624;11.700;2023-08-07T10:06:22;28.90;36.20
63013;DHT22;62113;45.624;11.700;2023-08-07T10:08:48;28.90;38.80
63013;DHT22;62113;45.624;11.700;2023-08-07T10:11:14;28.80;36.40
63013;DHT22;62113;45.624;11.700;2023-08-07T10:13:40;28.90;37.30
63013;DHT22;62113;45.624;11.700;2023-08-07T10:16:06;29.00;38.20
63013;DHT22;62113;45.624;11.700;2023-08-07T10:18:31;28.90;37.70
63013;DHT22;62113;45.624;11.700;2023-08-07T10:20:57;29.00;36.40
63013;DHT22;62113;45.624;11.700;2023-08-07T10:23:23;29.00;33.60
63013;DHT22;62113;45.624;11.700;2023-08-07T10:25:48;29.10;37.50
63013;DHT22;62113;45.624;11.700;2023-08-07T10:28:16;29.10;34.30
63013;DHT22;62113;45.624;11.700;2023-08-07T10:30:43;29.20;34.20
63013;DHT22;62113;45.624;11.700;2023-08-07T10:33:10;29.20;32.40
63013;DHT22;62113;45.624;11.700;2023-08-07T10:35:36;29.30;32.70
63013;DHT22;62113;45.624;11.700;2023-08-07T10:38:08;29.40;30.20
63013;DHT22;62113;45.624;11.700;2023-08-07T10:40:34;29.30;28.00
63013;DHT22;62113;45.624;11.700;2023-08-07T10:43:17;29.30;34.50
63013;DHT22;62113;45.624;11.700;2023-08-07T10:45:43;29.30;35.10
63013;DHT22;62113;45.624;11.700;2023-08-07T10:48:12;29.20;35.70
63013;DHT22;62113;45.624;11.700;2023-08-07T10:53:45;29.10;36.10
63013;DHT22;62113;45.624;11.700;2023-08-07T10:56:15;29.00;36.90
63013;DHT22;62113;45.624;11.700;2023-08-07T10:58:40;28.90;35.50
63013;DHT22;62113;45.624;11.700;2023-08-07T11:03:50;28.90;30.50
63013;DHT22;62113;45.624;11.700;2023-08-07T11:06:17;28.90;28.00
63013;DHT22;62113;45.624;11.700;2023-08-07T11:08:42;29.00;27.10
63013;DHT22;62113;45.624;11.700;2023-08-07T11:11:08;28.90;29.00
63013;DHT22;62113;45.624;11.700;2023-08-07T11:13:34;29.00;28.80
63013;DHT22;62113;45.624;11.700;2023-08-07T11:16:02;28.90;27.70
63013;DHT22;62113;45.624;11.700;2023-08-07T11:18:28;28.90;31.90
63013;DHT22;62113;45.624;11.700;2023-08-07T11:20:56;28.80;32.10
63013;DHT22;62113;45.624;11.700;2023-08-07T11:23:23;28.90;33.40
63013;DHT22;62113;45.624;11.700;2023-08-07T11:25:49;28.80;33.90
63013;DHT22;62113;45.624;11.700;2023-08-07T11:28:17;28.70;34.10
63013;DHT22;62113;45.624;11.700;2023-08-07T11:30:42;28.70;32.70
63013;DHT22;62113;45.624;11.700;2023-08-07T11:33:08;28.70;32.60
63013;DHT22;62113;45.624;11.700;2023-08-07T11:35:33;28.70;31.50
63013;DHT22;62113;45.624;11.700;2023-08-07T11:37:59;28.70;32.30
63013;DHT22;62113;45.624;11.700;2023-08-07T11:40:25;28.50;33.30
63013;DHT22;62113;45.624;11.700;2023-08-07T11:42:50;28.50;32.80
63013;DHT22;62113;45.624;11.700;2023-08-07T11:45:16;28.40;32.50
63013;DHT22;62113;45.624;11.700;2023-08-07T11:47:41;28.30;31.60
63013;DHT22;62113;45.624;11.700;2023-08-07T11:50:07;28.30;30.20
63013;DHT22;62113;45.624;11.700;2023-08-07T11:52:32;28.40;33.20
63013;DHT22;62113;45.624;11.700;2023-08-07T11:54:58;28.30;33.30
63013;DHT22;62113;45.624;11.700;2023-08-07T11:57:26;28.40;33.10
63013;DHT22;62113;45.624;11.700;2023-08-07T11:59:52;28.50;35.10
63013;DHT22;62113;45.624;11.700;2023-08-07T12:02:24;28.50;32.50
63013;DHT22;62113;45.624;11.700;2023-08-07T12:04:49;28.60;34.00
63013;DHT22;62113;45.624;11.700;2023-08-07T12:07:18;28.50;34.80
63013;DHT22;62113;45.624;11.700;2023-08-07T12:09:45;28.60;33.20
63013;DHT22;62113;45.624;11.700;2023-08-07T12:12:11;28.50;33.80
63013;DHT22;62113;45.624;11.700;2023-08-07T12:14:36;28.50;33.80
63013;DHT22;62113;45.624;11.700;2023-08-07T12:17:03;28.50;33.50
63013;DHT22;62113;45.624;11.700;2023-08-07T12:19:38;28.60;31.70
63013;DHT22;62113;45.624;11.700;2023-08-07T12:22:09;28.60;33.30
63013;DHT22;62113;45.624;11.700;2023-08-07T12:24:35;28.20;30.00
63013;DHT22;62113;45.624;11.700;2023-08-07T12:27:03;28.20;33.80
63013;DHT22;62113;45.624;11.700;2023-08-07T12:29:29;28.30;34.90
63013;DHT22;62113;45.624;11.700;2023-08-07T12:31:54;28.20;31.40
63013;DHT22;62113;45.624;11.700;2023-08-07T12:34:20;28.30;34.00
63013;DHT22;62113;45.624;11.700;2023-08-07T12:36:46;28.30;32.70
63013;DHT22;62113;45.624;11.700;2023-08-07T12:39:12;28.50;31.10
63013;DHT22;62113;45.624;11.700;2023-08-07T12:41:37;28.60;33.20
63013;DHT22;62113;45.624;11.700;2023-08-07T12:44:03;28.70;32.10
63013;DHT22;62113;45.624;11.700;2023-08-07T12:46:29;28.70;30.20
63013;DHT22;62113;45.624;11.700;2023-08-07T12:48:54;28.70;32.40
63013;DHT22;62113;45.624;11.700;2023-08-07T12:51:20;28.60;30.40
63013;DHT22;62113;45.624;11.700;2023-08-07T12:53:45;28.50;32.20
63013;DHT22;62113;45.624;11.700;2023-08-07T12:56:12;28.40;31.80
63013;DHT22;62113;45.624;11.700;2023-08-07T12:58:38;28.30;30.10
63013;DHT22;62113;45.624;11.700;2023-08-07T13:01:04;28.30;30.60
63013;DHT22;62113;45.624;11.700;2023-08-07T13:03:29;28.30;32.70
63013;DHT22;62113;45.624;11.700;2023-08-07T13:05:55;28.30;32.90
63013;DHT22;62113;45.624;11.700;2023-08-07T13:08:20;28.30;32.60
63013;DHT22;62113;45.624;11.700;2023-08-07T13:10:46;28.20;34.30
63013;DHT22;62113;45.624;11.700;2023-08-07T13:13:11;28.30;33.30
63013;DHT22;62113;45.624;11.700;2023-08-07T13:15:37;28.30;33.40
63013;DHT22;62113;45.624;11.700;2023-08-07T13:18:02;28.30;31.60
63013;DHT22;62113;45.624;11.700;2023-08-07T13:20:28;28.40;32.70
63013;DHT22;62113;45.624;11.700;2023-08-07T13:22:58;28.40;33.90
63013;DHT22;62113;45.624;11.700;2023-08-07T13:25:24;28.40;33.10
63013;DHT22;62113;45.624;11.700;2023-08-07T13:27:49;28.40;32.20
63013;DHT22;62113;45.624;11.700;2023-08-07T13:30:15;28.40;30.90
63013;DHT22;62113;45.624;11.700;2023-08-07T13:32:40;28.40;32.10
63013;DHT22;62113;45.624;11.700;2023-08-07T13:35:06;28.50;31.90
63013;DHT22;62113;45.624;11.700;2023-08-07T13:37:31;28.50;33.40
63013;DHT22;62113;45.624;11.700;2023-08-07T13:39:58;28.60;33.30
63013;DHT22;62113;45.624;11.700;2023-08-07T13:42:24;28.50;33.20
63013;DHT22;62113;45.624;11.700;2023-08-07T13:44:50;28.50;31.40
63013;DHT22;62113;45.624;11.700;2023-08-07T13:47:16;28.50;30.10
63013;DHT22;62113;45.624;11.700;2023-08-07T13:49:43;28.50;32.60
63013;DHT22;62113;45.624;11.700;2023-08-07T13:52:08;28.50;32.40
63013;DHT22;62113;45.624;11.700;2023-08-07T13:54:34;28.60;31.40
63013;DHT22;62113;45.624;11.700;2023-08-07T13:56:59;28.60;30.40
63013;DHT22;62113;45.624;11.700;2023-08-07T13:59:25;28.70;29.00
63013;DHT22;62113;45.624;11.700;2023-08-07T14:01:50;28.70;33.00
63013;DHT22;62113;45.624;11.700;2023-08-07T14:04:17;28.70;33.80
63013;DHT22;62113;45.624;11.700;2023-08-07T14:06:42;28.60;29.70
63013;DHT22;62113;45.624;11.700;2023-08-07T14:09:09;28.60;31.20
63013;DHT22;62113;45.624;11.700;2023-08-07T14:11:36;28.70;31.60
63013;DHT22;62113;45.624;11.700;2023-08-07T14:14:02;28.60;30.40
63013;DHT22;62113;45.624;11.700;2023-08-07T14:16:27;28.70;29.90
63013;DHT22;62113;45.624;11.700;2023-08-07T14:18:53;28.70;28.80
63013;DHT22;62113;45.624;11.700;2023-08-07T14:21:18;28.60;29.00
63013;DHT22;62113;45.624;11.700;2023-08-07T14:23:45;28.60;30.60
63013;DHT22;62113;45.624;11.700;2023-08-07T14:26:13;28.60;29.60
63013;DHT22;62113;45.624;11.700;2023-08-07T14:28:39;28.60;30.30
63013;DHT22;62113;45.624;11.700;2023-08-07T14:31:08;28.60;29.90
63013;DHT22;62113;45.624;11.700;2023-08-07T14:33:33;28.60;30.30
63013;DHT22;62113;45.624;11.700;2023-08-07T14:35:59;28.60;30.80
63013;DHT22;62113;45.624;11.700;2023-08-07T14:38:26;28.60;30.80
63013;DHT22;62113;45.624;11.700;2023-08-07T14:40:51;28.70;30.00
63013;DHT22;62113;45.624;11.700;2023-08-07T14:43:17;28.70;28.80
63013;DHT22;62113;45.624;11.700;2023-08-07T14:45:42;28.70;28.60
63013;DHT22;62113;45.624;11.700;2023-08-07T14:48:08;28.80;27.70
63013;DHT22;62113;45.624;11.700;2023-08-07T14:50:33;28.80;29.70
63013;DHT22;62113;45.624;11.700;2023-08-07T14:52:59;28.70;29.70
63013;DHT22;62113;45.624;11.700;2023-08-07T14:55:24;28.70;30.60
63013;DHT22;62113;45.624;11.700;2023-08-07T14:57:50;28.60;30.30
63013;DHT22;62113;45.624;11.700;2023-08-07T15:00:15;28.60;28.40
63013;DHT22;62113;45.624;11.700;2023-08-07T15:02:42;28.60;30.00
63013;DHT22;62113;45.624;11.700;2023-08-07T15:05:07;28.60;29.00
63013;DHT22;62113;45.624;11.700;2023-08-07T15:07:33;28.50;28.70
63013;DHT22;62113;45.624;11.700;2023-08-07T15:09:59;28.50;28.80
63013;DHT22;62113;45.624;11.700;2023-08-07T15:12:25;28.50;28.90
63013;DHT22;62113;45.624;11.700;2023-08-07T15:14:50;28.50;30.30
63013;DHT22;62113;45.624;11.700;2023-08-07T15:17:16;28.40;27.60